Time;durP1;ratioP1;P1;durP2;ratioP2;P2;SDS_P1;SDS_P2;PMS_P1;PMS_P2;Temp;Humidity;BMP_temperature;BMP_pressure;BME280_temperature;BME280_humidity;BME280_pressure;Samples;Min_cycle;Max_cycle;Signal;HPM_P1;HPM_P2
2021/10/30 00:02:20;;;;;;;10.30;6.70;;;19.00;71.20;;;;;;6220238;23;20129;-78
2021/10/30 00:04:46;;;;;;;8.38;6.15;;;19.00;71.30;;;;;;6247100;23;20169;-79
2021/10/30 00:07:14;;;;;;;9.88;6.80;;;19.00;71.10;;;;;;6246616;23;20188;-79
2021/10/30 00:09:41;;;;;;;9.68;6.35;;;19.00;71.20;;;;;;6247070;23;20172;-78
2021/10/30 00:12:07;;;;;;;9.98;6.10;;;19.00;71.30;;;;;;6219938;23;20153;-79
2021/10/30 00:14:33;;;;;;;8.13;6.10;;;19.00;71.40;;;;;;6247084;23;20585;-79
2021/10/30 00:16:58;;;;;;;9.55;6.63;;;19.00;71.40;;;;;;6246720;23;20130;-79
2021/10/30 00:19:24;;;;;;;9.45;6.90;;;19.00;71.30;;;;;;6246786;23;20504;-78
2021/10/30 00:21:52;;;;;;;8.75;6.25;;;19.00;71.20;;;;;;6219648;23;20678;-79
2021/10/30 00:24:19;;;;;;;9.20;6.82;;;19.00;71.30;;;;;;6246933;23;20581;-79
2021/10/30 00:26:44;;;;;;;9.07;7.25;;;19.00;71.30;;;;;;6219774;23;20217;-78
2021/10/30 00:29:10;;;;;;;11.02;6.88;;;19.00;71.30;;;;;;6219764;23;20133;-79
2021/10/30 00:31:35;;;;;;;10.32;7.10;;;19.00;71.40;;;;;;6246607;23;20562;-78
2021/10/30 00:34:01;;;;;;;10.02;6.82;;;19.00;71.30;;;;;;6194725;23;20141;-78
2021/10/30 00:36:27;;;;;;;9.18;6.05;;;19.00;71.20;;;;;;6246324;23;20161;-79
2021/10/30 00:38:53;;;;;;;8.60;6.47;;;19.00;71.20;;;;;;6246503;23;20183;-78
2021/10/30 00:41:19;;;;;;;9.43;6.28;;;19.00;71.10;;;;;;6246678;23;20533;-79
2021/10/30 00:43:44;;;;;;;9.00;6.65;;;19.00;71.30;;;;;;6219790;23;20512;-79
2021/10/30 00:46:10;;;;;;;8.70;6.47;;;19.00;71.20;;;;;;6246438;23;20566;-79
2021/10/30 00:48:36;;;;;;;9.23;6.65;;;19.00;71.40;;;;;;6246350;23;20133;-79
2021/10/30 00:51:02;;;;;;;7.82;6.00;;;19.00;71.40;;;;;;6246417;23;20149;-79
2021/10/30 00:53:30;;;;;;;9.15;6.53;;;19.00;71.40;;;;;;6219785;23;20133;-78
2021/10/30 00:55:58;;;;;;;9.35;6.32;;;18.90;71.40;;;;;;6246592;23;20142;-79
2021/10/30 00:58:24;;;;;;;9.02;6.18;;;19.00;71.60;;;;;;6246370;23;20153;-79
2021/10/30 01:00:50;;;;;;;8.93;6.25;;;18.90;71.60;;;;;;6246214;23;20161;-80
2021/10/30 01:03:15;;;;;;;9.48;5.95;;;18.90;71.70;;;;;;6219558;23;20180;-78
2021/10/30 01:05:41;;;;;;;10.65;6.45;;;18.90;71.70;;;;;;6246270;23;20569;-79
2021/10/30 01:08:08;;;;;;;9.52;6.63;;;18.90;71.60;;;;;;6245953;23;20189;-79
2021/10/30 01:10:33;;;;;;;9.98;6.10;;;18.90;71.50;;;;;;6246127;23;20136;-78
2021/10/30 01:12:59;;;;;;;9.77;6.75;;;18.90;71.40;;;;;;6246186;23;20134;-78
2021/10/30 01:15:25;;;;;;;10.43;7.20;;;18.90;71.50;;;;;;6246521;23;20627;-79
2021/10/30 01:17:50;;;;;;;8.70;6.57;;;18.90;71.60;;;;;;6246532;23;20567;-79
2021/10/30 01:20:20;;;;;;;9.23;6.82;;;18.90;71.60;;;;;;6245980;23;20174;-79
2021/10/30 01:22:45;;;;;;;9.30;6.45;;;18.90;71.80;;;;;;6246342;23;20149;-79
2021/10/30 01:25:11;;;;;;;10.68;6.90;;;18.90;71.70;;;;;;6246075;23;20208;-78
2021/10/30 01:27:37;;;;;;;9.80;6.97;;;18.90;71.70;;;;;;6246041;23;20157;-78
2021/10/30 01:30:03;;;;;;;9.70;6.85;;;18.90;71.80;;;;;;6245970;23;20553;-79
2021/10/30 01:32:28;;;;;;;9.55;6.90;;;18.90;71.80;;;;;;6219372;23;20133;-79
2021/10/30 01:34:54;;;;;;;9.02;7.07;;;18.80;71.80;;;;;;6246075;23;20140;-78
2021/10/30 01:37:20;;;;;;;10.82;6.63;;;18.80;71.80;;;;;;6246374;23;20275;-79
2021/10/30 01:39:45;;;;;;;8.65;6.45;;;18.80;71.90;;;;;;6246154;23;20137;-79
2021/10/30 01:42:11;;;;;;;9.95;6.63;;;18.80;71.90;;;;;;6245975;23;20140;-79
2021/10/30 01:44:37;;;;;;;10.00;7.22;;;18.80;72.00;;;;;;6246317;23;20137;-79
2021/10/30 01:47:03;;;;;;;9.02;6.57;;;18.80;72.00;;;;;;6245514;23;20133;-79
2021/10/30 01:49:29;;;;;;;9.02;6.50;;;18.70;72.00;;;;;;6219298;23;20130;-78
2021/10/30 01:51:54;;;;;;;10.10;6.78;;;18.80;72.10;;;;;;6219132;23;20145;-78
2021/10/30 01:54:21;;;;;;;8.18;6.30;;;18.70;72.00;;;;;;6245815;23;20133;-79
2021/10/30 01:56:47;;;;;;;9.27;6.80;;;18.80;71.80;;;;;;6246310;23;20141;-79
2021/10/30 01:59:12;;;;;;;9.38;6.60;;;18.80;71.80;;;;;;6246198;23;20164;-78
2021/10/30 02:01:38;;;;;;;11.10;6.90;;;18.80;71.80;;;;;;6245747;23;20161;-78
2021/10/30 02:04:04;;;;;;;10.07;6.65;;;18.80;71.80;;;;;;6245939;23;20142;-80
2021/10/30 02:06:30;;;;;;;8.75;6.28;;;18.80;71.80;;;;;;6245398;23;20160;-79
2021/10/30 02:08:55;;;;;;;8.57;6.63;;;18.80;71.60;;;;;;6219036;23;20220;-79
2021/10/30 02:11:21;;;;;;;9.77;6.85;;;18.80;71.80;;;;;;6246105;23;20145;-79
2021/10/30 02:13:46;;;;;;;9.85;7.35;;;18.90;72.50;;;;;;6245695;23;20559;-79
2021/10/30 02:16:13;;;;;;;8.57;6.45;;;18.90;71.70;;;;;;6219257;23;20133;-79
2021/10/30 02:18:40;;;;;;;9.43;6.85;;;18.80;71.60;;;;;;6245674;23;20129;-78
2021/10/30 02:21:06;;;;;;;10.07;6.70;;;18.80;71.50;;;;;;6219167;23;20188;-79
2021/10/30 02:23:31;;;;;;;11.63;6.65;;;18.80;71.50;;;;;;6245639;23;20134;-79
2021/10/30 02:25:57;;;;;;;9.50;7.07;;;18.90;71.40;;;;;;6219257;23;20130;-78
2021/10/30 02:28:23;;;;;;;10.35;7.28;;;18.90;71.40;;;;;;6245721;23;20132;-79
2021/10/30 02:30:48;;;;;;;9.35;6.75;;;18.90;71.50;;;;;;6245632;23;20142;-79
2021/10/30 02:33:14;;;;;;;9.23;6.55;;;18.80;71.60;;;;;;6219016;23;20465;-79
2021/10/30 02:35:40;;;;;;;11.65;6.93;;;18.80;71.60;;;;;;6245555;23;20169;-79
2021/10/30 02:38:06;;;;;;;9.93;6.97;;;18.80;71.70;;;;;;6245584;23;20157;-79
2021/10/30 02:40:31;;;;;;;10.30;7.20;;;18.80;71.60;;;;;;6245534;23;20200;-78
2021/10/30 02:42:57;;;;;;;10.43;7.32;;;18.80;71.50;;;;;;6245614;23;20129;-79
2021/10/30 02:45:23;;;;;;;11.05;7.20;;;18.80;71.50;;;;;;6245218;23;20137;-79
2021/10/30 02:47:48;;;;;;;10.23;6.97;;;18.80;71.40;;;;;;6245733;23;20134;-79
2021/10/30 02:50:14;;;;;;;9.68;6.85;;;18.80;71.30;;;;;;6218951;23;20465;-79
2021/10/30 02:52:40;;;;;;;9.38;6.75;;;18.80;71.50;;;;;;6245810;23;20133;-79
2021/10/30 02:55:07;;;;;;;9.23;6.88;;;18.80;71.60;;;;;;6218847;23;20134;-79
2021/10/30 02:57:32;;;;;;;11.57;7.45;;;18.80;71.60;;;;;;6245787;23;20134;-79
2021/10/30 02:59:58;;;;;;;10.20;7.40;;;18.80;71.50;;;;;;6247282;23;20193;-78
2021/10/30 03:02:24;;;;;;;9.27;6.80;;;18.80;71.50;;;;;;6247433;23;20612;-78
2021/10/30 03:04:50;;;;;;;9.25;6.82;;;18.80;71.50;;;;;;6247814;23;20192;-78
2021/10/30 03:07:16;;;;;;;10.60;6.93;;;18.80;71.60;;;;;;6247273;23;20208;-78
2021/10/30 03:09:47;;;;;;;9.18;6.38;;;18.80;71.60;;;;;;6247241;23;20145;-79
2021/10/30 03:12:13;;;;;;;10.30;6.88;;;18.80;71.60;;;;;;6221801;23;20588;-79
2021/10/30 03:14:39;;;;;;;10.07;6.82;;;18.80;71.50;;;;;;6220499;23;20141;-79
2021/10/30 03:17:06;;;;;;;8.98;6.60;;;18.80;71.60;;;;;;6196053;23;20156;-80
2021/10/30 03:19:32;;;;;;;9.77;7.38;;;18.80;71.50;;;;;;6247339;23;20130;-78
2021/10/30 03:21:58;;;;;;;10.20;6.93;;;18.70;71.60;;;;;;6247068;23;20193;-78
2021/10/30 03:24:24;;;;;;;8.88;7.05;;;18.80;72.40;;;;;;6247302;23;20212;-78
2021/10/30 03:26:50;;;;;;;10.38;7.18;;;18.80;71.50;;;;;;6247255;23;20558;-79
2021/10/30 03:29:15;;;;;;;10.75;6.78;;;18.80;71.50;;;;;;6220402;23;20133;-79
2021/10/30 03:31:41;;;;;;;10.50;7.05;;;18.80;71.40;;;;;;6247042;23;20217;-78
2021/10/30 03:34:07;;;;;;;11.02;6.90;;;18.80;71.50;;;;;;6247063;23;20162;-79
2021/10/30 03:36:32;;;;;;;9.25;6.50;;;18.80;71.50;;;;;;6247030;23;20140;-79
2021/10/30 03:38:58;;;;;;;10.05;7.43;;;18.80;71.40;;;;;;6246989;23;20138;-79
2021/10/30 03:41:24;;;;;;;10.05;7.18;;;18.70;71.50;;;;;;6247207;23;20173;-79
2021/10/30 03:43:50;;;;;;;10.50;7.38;;;18.70;71.60;;;;;;6220206;23;20240;-78
2021/10/30 03:46:15;;;;;;;10.23;7.03;;;18.70;71.40;;;;;;6247301;23;20441;-79
2021/10/30 03:48:41;;;;;;;10.10;6.93;;;18.70;71.40;;;;;;6246925;23;20134;-79
2021/10/30 03:51:07;;;;;;;10.55;6.78;;;18.70;71.70;;;;;;6246877;23;20515;-79
2021/10/30 03:53:32;;;;;;;10.43;7.05;;;18.70;71.40;;;;;;6246855;23;20500;-79
2021/10/30 03:55:58;;;;;;;9.05;7.03;;;18.70;71.40;;;;;;6246784;23;20141;-78
2021/10/30 03:58:24;;;;;;;10.40;7.47;;;18.70;71.40;;;;;;6220337;23;20134;-78
2021/10/30 04:00:49;;;;;;;10.32;6.93;;;18.70;71.40;;;;;;6219923;23;20179;-78
2021/10/30 04:03:15;;;;;;;10.55;7.15;;;18.80;72.20;;;;;;6220437;23;20444;-79
2021/10/30 04:05:41;;;;;;;9.00;6.90;;;18.70;71.50;;;;;;6246816;23;20134;-79
2021/10/30 04:08:07;;;;;;;10.40;7.47;;;18.70;71.50;;;;;;6246810;23;20548;-79
2021/10/30 04:10:33;;;;;;;8.85;7.03;;;18.70;71.60;;;;;;6219824;23;20570;-79
2021/10/30 04:12:59;;;;;;;9.43;6.55;;;18.70;71.40;;;;;;6246762;23;20240;-78
2021/10/30 04:15:25;;;;;;;9.75;6.82;;;18.70;71.40;;;;;;6246961;23;20142;-79
2021/10/30 04:17:50;;;;;;;10.27;7.15;;;18.70;71.40;;;;;;6219889;23;20224;-79
2021/10/30 04:20:16;;;;;;;9.88;7.05;;;18.70;71.20;;;;;;6246530;23;20544;-78
2021/10/30 04:22:42;;;;;;;10.35;7.38;;;18.70;71.40;;;;;;6246505;23;20209;-78
2021/10/30 04:25:08;;;;;;;9.50;7.22;;;18.70;71.40;;;;;;6220412;23;20137;-79
2021/10/30 04:27:34;;;;;;;8.10;6.60;;;18.70;71.50;;;;;;6246880;23;20138;-79
2021/10/30 04:29:59;;;;;;;10.18;7.10;;;18.70;71.40;;;;;;6246401;23;20145;-79
2021/10/30 04:32:25;;;;;;;10.10;7.25;;;18.70;71.60;;;;;;6219746;23;20569;-79
2021/10/30 04:34:58;;;;;;;11.93;7.40;;;18.70;71.50;;;;;;6246486;23;20205;-78
2021/10/30 04:37:24;;;;;;;10.35;7.43;;;18.70;71.60;;;;;;6221883;23;20129;-79
2021/10/30 04:39:51;;;;;;;10.95;7.53;;;18.70;71.70;;;;;;6220042;23;20648;-79
2021/10/30 04:42:17;;;;;;;10.85;7.30;;;18.70;71.60;;;;;;6219740;23;20137;-79
2021/10/30 04:44:43;;;;;;;10.25;7.15;;;18.70;71.60;;;;;;6220116;23;20134;-78
2021/10/30 04:47:09;;;;;;;10.32;6.75;;;18.70;71.60;;;;;;6246493;23;20137;-79
2021/10/30 04:49:35;;;;;;;9.75;7.13;;;18.70;71.40;;;;;;6246159;23;20153;-79
2021/10/30 04:52:01;;;;;;;10.32;7.38;;;18.70;71.20;;;;;;6246447;23;20187;-79
2021/10/30 04:54:26;;;;;;;11.60;7.55;;;18.70;71.40;;;;;;6219829;23;20148;-79
2021/10/30 04:56:52;;;;;;;10.93;7.28;;;18.70;71.40;;;;;;6219294;23;20140;-78
2021/10/30 04:59:18;;;;;;;10.65;7.35;;;18.70;71.50;;;;;;6246451;23;20140;-79
2021/10/30 05:01:43;;;;;;;10.80;7.50;;;18.70;71.60;;;;;;6246078;23;20192;-78
2021/10/30 05:04:09;;;;;;;9.55;7.18;;;18.70;71.80;;;;;;6246217;23;20596;-78
2021/10/30 05:06:35;;;;;;;9.20;7.18;;;18.70;71.40;;;;;;6245847;23;20605;-79
2021/10/30 05:09:00;;;;;;;10.52;7.07;;;18.70;71.50;;;;;;6246552;23;20164;-82
2021/10/30 05:11:26;;;;;;;9.00;7.13;;;18.70;71.50;;;;;;6246281;23;20473;-82
2021/10/30 05:13:51;;;;;;;8.93;6.93;;;18.70;71.40;;;;;;6219722;23;20169;-81
2021/10/30 05:16:17;;;;;;;10.10;7.22;;;18.70;71.40;;;;;;6246052;23;20600;-79
2021/10/30 05:18:43;;;;;;;8.60;6.70;;;18.70;71.40;;;;;;6219246;23;20632;-79
2021/10/30 05:21:08;;;;;;;11.55;7.55;;;18.60;71.80;;;;;;6246097;23;20173;-80
2021/10/30 05:23:38;;;;;;;11.43;7.53;;;18.60;71.90;;;;;;6246683;23;20459;-79
2021/10/30 05:26:04;;;;;;;10.55;7.30;;;18.60;71.80;;;;;;6246958;23;20134;-79
2021/10/30 05:28:31;;;;;;;11.07;7.45;;;18.60;71.70;;;;;;6220039;23;20130;-80
2021/10/30 05:30:56;;;;;;;10.32;7.43;;;18.60;71.50;;;;;;6245534;23;20195;-80
2021/10/30 05:33:22;;;;;;;10.25;7.22;;;18.60;71.60;;;;;;6246040;23;20133;-80
2021/10/30 05:35:48;;;;;;;9.07;6.93;;;18.60;71.80;;;;;;6246517;23;20137;-81
2021/10/30 05:38:14;;;;;;;9.30;7.10;;;18.60;71.80;;;;;;6245745;23;20144;-79
2021/10/30 05:40:40;;;;;;;10.85;7.55;;;18.60;71.90;;;;;;6246013;23;20169;-79
2021/10/30 05:43:06;;;;;;;10.05;7.38;;;18.60;71.70;;;;;;6246295;23;20665;-79
2021/10/30 05:45:32;;;;;;;10.32;7.40;;;18.60;71.50;;;;;;6218863;23;20172;-79
2021/10/30 05:47:57;;;;;;;10.68;7.43;;;18.60;71.50;;;;;;6245756;23;20163;-79
2021/10/30 05:50:23;;;;;;;10.45;7.13;;;18.60;71.50;;;;;;6245590;23;20556;-79
2021/10/30 05:52:49;;;;;;;11.43;7.43;;;18.60;71.50;;;;;;6245708;23;20637;-79
2021/10/30 05:55:14;;;;;;;9.93;7.32;;;18.60;71.50;;;;;;6219230;23;20134;-79
2021/10/30 05:57:40;;;;;;;11.15;7.72;;;18.60;71.30;;;;;;6245330;23;20140;-78
2021/10/30 06:00:06;;;;;;;10.80;7.22;;;18.60;71.50;;;;;;6243859;23;20181;-79
2021/10/30 06:02:32;;;;;;;9.93;7.22;;;18.60;71.70;;;;;;6246113;23;20137;-79
2021/10/30 06:04:58;;;;;;;9.75;7.53;;;18.60;71.20;;;;;;6245659;23;20279;-79
2021/10/30 06:07:24;;;;;;;11.57;7.47;;;18.60;71.40;;;;;;6245517;23;20277;-79
2021/10/30 06:09:50;;;;;;;10.43;7.25;;;18.60;71.80;;;;;;6245563;23;20554;-79
2021/10/30 06:12:16;;;;;;;10.52;7.22;;;18.60;71.50;;;;;;6245586;23;20145;-78
2021/10/30 06:14:41;;;;;;;9.35;7.07;;;18.60;71.20;;;;;;6245192;23;20605;-79
2021/10/30 06:17:07;;;;;;;9.90;7.20;;;18.60;71.10;;;;;;6218528;23;20141;-79
2021/10/30 06:19:33;;;;;;;10.98;8.00;;;18.70;70.60;;;;;;6246041;23;20584;-79
2021/10/30 06:21:58;;;;;;;10.90;7.47;;;18.70;70.70;;;;;;6245964;23;20165;-80
2021/10/30 06:24:25;;;;;;;10.95;7.57;;;18.70;70.60;;;;;;6218886;23;20149;-78
2021/10/30 06:26:51;;;;;;;11.50;8.02;;;18.80;70.60;;;;;;6245893;23;20133;-78
2021/10/30 06:29:17;;;;;;;10.52;7.05;;;18.80;70.50;;;;;;6243948;23;20138;-80
2021/10/30 06:31:42;;;;;;;11.85;7.63;;;18.90;70.50;;;;;;6243840;23;20204;-78
2021/10/30 06:34:08;;;;;;;10.52;6.85;;;18.90;70.30;;;;;;6247333;23;20557;-80
2021/10/30 06:36:35;;;;;;;10.15;7.43;;;18.90;70.40;;;;;;6220571;23;20168;-79
2021/10/30 06:39:00;;;;;;;11.27;7.95;;;18.90;70.00;;;;;;6220060;23;20138;-78
2021/10/30 06:41:26;;;;;;;11.88;7.40;;;18.90;69.90;;;;;;6194647;23;20180;-80
2021/10/30 06:43:52;;;;;;;9.85;6.90;;;18.90;70.00;;;;;;6248235;23;20142;-80
2021/10/30 06:46:18;;;;;;;10.70;7.55;;;19.00;70.00;;;;;;6248779;23;20130;-79
2021/10/30 06:48:44;;;;;;;11.07;7.57;;;19.00;69.80;;;;;;6249227;23;20134;-79
2021/10/30 06:51:11;;;;;;;9.05;7.28;;;19.00;69.40;;;;;;6248534;23;20627;-79
2021/10/30 06:53:38;;;;;;;11.10;7.57;;;19.00;69.40;;;;;;6222611;23;20126;-81
2021/10/30 06:56:04;;;;;;;10.60;7.13;;;19.00;69.40;;;;;;6249716;23;20134;-80
2021/10/30 06:58:30;;;;;;;10.52;7.57;;;19.10;69.30;;;;;;6249304;23;20141;-79
2021/10/30 07:00:57;;;;;;;11.35;7.93;;;19.10;69.10;;;;;;6249235;23;20604;-79
2021/10/30 07:03:24;;;;;;;9.95;7.20;;;19.10;69.00;;;;;;6249948;23;20129;-81
2021/10/30 07:05:50;;;;;;;9.55;7.03;;;19.10;68.80;;;;;;6248933;23;20136;-80
2021/10/30 07:08:16;;;;;;;10.27;7.75;;;19.20;69.00;;;;;;6249072;23;20197;-81
2021/10/30 07:10:42;;;;;;;11.30;7.70;;;19.20;68.90;;;;;;6249125;23;20577;-81
2021/10/30 07:13:07;;;;;;;10.93;7.18;;;19.20;68.50;;;;;;6248966;23;20130;-80
2021/10/30 07:15:33;;;;;;;9.93;7.50;;;19.20;68.50;;;;;;6248468;23;20461;-81
2021/10/30 07:17:59;;;;;;;9.40;7.15;;;19.30;68.20;;;;;;6248336;23;20157;-80
2021/10/30 07:20:25;;;;;;;10.15;7.55;;;19.30;68.20;;;;;;6220736;23;20248;-80
2021/10/30 07:22:50;;;;;;;12.23;7.93;;;19.20;68.10;;;;;;6220873;23;20536;-80
2021/10/30 07:25:18;;;;;;;10.25;7.40;;;19.30;67.90;;;;;;6247858;23;20569;-80
2021/10/30 07:27:44;;;;;;;10.55;7.55;;;19.30;68.00;;;;;;6247807;23;20134;-80
2021/10/30 07:30:11;;;;;;;10.07;7.70;;;19.30;68.10;;;;;;6248702;23;20208;-80
2021/10/30 07:32:36;;;;;;;10.30;7.32;;;19.30;67.70;;;;;;6248784;23;20134;-79
2021/10/30 07:35:02;;;;;;;10.15;7.28;;;19.30;67.80;;;;;;6250527;23;20133;-79
2021/10/30 07:37:30;;;;;;;11.70;8.25;;;19.40;67.80;;;;;;6248109;23;20133;-79
2021/10/30 07:39:58;;;;;;;9.70;7.35;;;19.40;67.40;;;;;;6221877;23;20217;-80
2021/10/30 07:42:23;;;;;;;11.65;7.60;;;19.40;67.90;;;;;;6221887;23;20141;-78
2021/10/30 07:44:49;;;;;;;9.90;7.20;;;19.40;67.50;;;;;;6247130;23;20144;-80
2021/10/30 07:47:15;;;;;;;9.55;7.30;;;19.40;67.60;;;;;;6222086;23;20154;-80
2021/10/30 07:49:41;;;;;;;12.05;7.60;;;19.40;67.40;;;;;;6222118;23;20224;-79
2021/10/30 07:52:07;;;;;;;10.70;8.05;;;19.40;66.90;;;;;;6221304;23;20288;-79
2021/10/30 07:54:34;;;;;;;11.13;7.80;;;19.50;67.20;;;;;;6220679;23;20141;-81
2021/10/30 07:57:01;;;;;;;11.10;7.28;;;19.40;67.00;;;;;;6221551;23;20137;-80
2021/10/30 07:59:28;;;;;;;10.77;7.55;;;19.50;68.10;;;;;;6224669;23;20137;-78
2021/10/30 08:01:54;;;;;;;12.52;7.47;;;19.40;67.70;;;;;;6223198;23;20528;-79
2021/10/30 08:04:21;;;;;;;10.02;7.53;;;19.50;67.60;;;;;;6223745;23;20145;-79
2021/10/30 08:06:46;;;;;;;10.90;7.70;;;19.50;67.60;;;;;;6251090;23;20188;-79
2021/10/30 08:09:14;;;;;;;12.25;8.95;;;19.50;67.40;;;;;;6251969;23;20182;-79
2021/10/30 08:11:40;;;;;;;12.20;8.00;;;19.50;67.40;;;;;;6252012;23;20165;-79
2021/10/30 08:14:06;;;;;;;10.27;7.53;;;19.50;67.00;;;;;;6224576;23;20193;-80
2021/10/30 08:16:32;;;;;;;10.90;7.72;;;19.50;67.40;;;;;;6225178;23;20142;-78
2021/10/30 08:18:57;;;;;;;10.43;7.72;;;19.50;67.00;;;;;;6224389;23;20130;-81
2021/10/30 08:21:24;;;;;;;11.55;8.10;;;19.50;67.20;;;;;;6223276;23;20176;-79
2021/10/30 08:23:50;;;;;;;11.93;8.45;;;19.60;67.20;;;;;;6249175;23;20161;-80
2021/10/30 08:26:17;;;;;;;11.80;7.78;;;19.60;66.70;;;;;;6223295;23;20518;-81
2021/10/30 08:28:44;;;;;;;11.25;8.15;;;19.50;66.60;;;;;;6222853;23;20145;-83
2021/10/30 08:31:12;;;;;;;12.10;7.97;;;19.60;66.60;;;;;;6224571;23;20157;-81
2021/10/30 08:33:38;;;;;;;10.48;7.93;;;19.60;66.70;;;;;;6223663;23;20133;-78
2021/10/30 08:36:04;;;;;;;12.32;8.60;;;19.60;66.60;;;;;;6250500;23;20137;-80
2021/10/30 08:38:30;;;;;;;12.20;8.40;;;19.60;67.00;;;;;;6222608;23;20137;-79
2021/10/30 08:40:57;;;;;;;11.60;8.05;;;19.60;66.90;;;;;;6222668;23;20256;-79
2021/10/30 08:43:24;;;;;;;11.55;7.85;;;19.60;66.50;;;;;;6221288;23;20134;-81
2021/10/30 08:45:50;;;;;;;11.88;8.30;;;19.60;67.10;;;;;;6220307;23;20126;-81
2021/10/30 08:48:17;;;;;;;10.73;8.18;;;19.60;67.30;;;;;;6220543;23;20145;-80
2021/10/30 08:50:43;;;;;;;11.10;8.18;;;19.60;66.60;;;;;;6247271;23;20505;-79
2021/10/30 08:53:09;;;;;;;11.90;8.50;;;19.60;66.70;;;;;;6247237;23;20573;-80
2021/10/30 08:55:35;;;;;;;11.43;8.30;;;19.60;66.70;;;;;;6220435;23;20134;-81
2021/10/30 08:58:05;;;;;;;11.90;8.68;;;19.70;66.50;;;;;;6247648;23;20148;-79
2021/10/30 09:00:31;;;;;;;11.95;8.20;;;19.60;66.60;;;;;;6220157;23;20169;-81
2021/10/30 09:03:00;;;;;;;11.35;7.97;;;19.70;67.00;;;;;;6247073;23;20237;-79
2021/10/30 09:05:25;;;;;;;10.50;8.18;;;19.70;66.90;;;;;;6221051;23;20149;-79
2021/10/30 09:07:53;;;;;;;11.23;8.20;;;19.70;66.90;;;;;;6194434;23;20204;-82
2021/10/30 09:10:22;;;;;;;12.48;8.70;;;19.70;67.20;;;;;;6246994;23;20137;-80
2021/10/30 09:12:50;;;;;;;11.15;8.27;;;19.70;66.80;;;;;;6246410;23;20130;-79
2021/10/30 09:15:28;;;;;;;10.50;7.57;;;19.70;67.70;;;;;;6220019;23;20149;-82
2021/10/30 09:17:53;;;;;;;12.75;7.93;;;19.80;67.50;;;;;;6222950;23;20573;-80
2021/10/30 09:20:19;;;;;;;11.95;8.05;;;19.70;67.30;;;;;;6245852;23;20180;-77
2021/10/30 09:22:54;;;;;;;11.32;7.93;;;19.80;67.50;;;;;;6223137;23;20134;-80
2021/10/30 09:25:20;;;;;;;12.55;8.50;;;19.80;67.50;;;;;;6194102;23;20141;-81
2021/10/30 09:27:48;;;;;;;12.40;8.45;;;19.80;67.50;;;;;;6244475;23;20590;-81
2021/10/30 09:30:17;;;;;;;11.60;8.35;;;19.70;67.30;;;;;;6221990;23;20635;-80
2021/10/30 09:32:51;;;;;;;11.10;8.60;;;19.80;67.50;;;;;;6221917;23;20130;-78
2021/10/30 09:35:21;;;;;;;13.50;9.10;;;19.80;67.00;;;;;;6250856;23;20533;-77
2021/10/30 09:37:50;;;;;;;11.90;8.57;;;19.80;67.20;;;;;;6224079;23;20157;-79
2021/10/30 09:40:25;;;;;;;13.27;8.90;;;19.80;67.10;;;;;;6253465;23;20228;-77
2021/10/30 09:43:11;;;;;;;15.35;11.20;;;19.90;67.70;;;;;;6202538;23;20148;-80
2021/10/30 09:45:38;;;;;;;18.60;9.45;;;19.80;67.10;;;;;;6252608;23;20164;-81
2021/10/30 09:48:08;;;;;;;16.85;9.88;;;19.80;66.80;;;;;;6226915;23;20187;-79
2021/10/30 09:50:35;;;;;;;13.40;9.15;;;19.90;67.00;;;;;;6251553;23;20133;-81
2021/10/30 09:53:22;;;;;;;14.35;10.57;;;19.80;66.70;;;;;;6249585;23;20149;-79
2021/10/30 09:56:02;;;;;;;15.13;10.60;;;19.80;66.60;;;;;;6202313;23;20228;-77
2021/10/30 09:58:32;;;;;;;12.98;9.88;;;19.80;66.70;;;;;;6227433;23;20134;-77
2021/10/30 10:01:01;;;;;;;15.20;10.50;;;19.80;67.10;;;;;;6229322;23;20165;-77
2021/10/30 10:03:27;;;;;;;14.60;10.88;;;19.80;67.00;;;;;;6178317;23;20141;-76
2021/10/30 10:05:56;;;;;;;18.25;11.18;;;19.80;67.40;;;;;;6204829;23;20167;-79
2021/10/30 10:08:21;;;;;;;12.55;8.40;;;19.80;67.30;;;;;;6180241;23;20215;-77
2021/10/30 10:10:48;;;;;;;16.90;11.65;;;19.80;67.90;;;;;;6232193;23;20138;-77
2021/10/30 10:13:14;;;;;;;13.48;10.23;;;19.80;67.10;;;;;;6182901;23;20141;-77
2021/10/30 10:15:43;;;;;;;16.10;11.40;;;19.80;67.30;;;;;;6230112;23;20160;-81
2021/10/30 10:18:13;;;;;;;14.05;10.13;;;19.80;67.10;;;;;;6175836;23;20141;-77
2021/10/30 10:20:41;;;;;;;14.85;11.00;;;19.80;67.40;;;;;;6257528;23;20224;-76
2021/10/30 10:23:12;;;;;;;15.68;10.15;;;19.80;67.20;;;;;;6258442;23;20160;-77
2021/10/30 10:25:42;;;;;;;15.65;11.05;;;19.80;67.40;;;;;;6232578;23;20511;-77
2021/10/30 10:28:36;;;;;;;13.77;9.93;;;19.80;67.60;;;;;;6206189;23;20141;-78
2021/10/30 10:31:23;;;;;;;13.85;9.80;;;19.80;68.00;;;;;;6254715;23;20130;-81
2021/10/30 10:34:10;;;;;;;13.23;9.88;;;19.80;68.10;;;;;;6231090;23;20134;-79
2021/10/30 10:36:38;;;;;;;15.77;10.68;;;19.70;68.10;;;;;;6230859;23;20148;-77
2021/10/30 10:39:08;;;;;;;17.67;10.95;;;19.80;67.80;;;;;;6257252;23;20176;-78
2021/10/30 10:41:50;;;;;;;16.05;11.00;;;19.80;68.00;;;;;;6256841;23;20604;-77
2021/10/30 10:44:56;;;;;;;17.13;12.20;;;19.80;67.90;;;;;;6227518;23;20133;-78
2021/10/30 10:47:50;;;;;;;15.15;10.95;;;19.80;67.10;;;;;;6218344;23;20138;-78
2021/10/30 10:50:34;;;;;;;15.18;10.65;;;19.80;67.70;;;;;;6255489;23;20138;-78
2021/10/30 10:53:16;;;;;;;17.63;11.65;;;19.80;67.90;;;;;;6258202;23;20594;-79
2021/10/30 10:56:05;;;;;;;18.05;12.05;;;19.80;67.80;;;;;;6231171;23;20141;-78
2021/10/30 10:59:01;;;;;;;17.58;11.90;;;19.90;67.50;;;;;;6237187;23;20541;-78
2021/10/30 11:01:26;;;;;;;16.48;11.70;;;19.90;67.60;;;;;;6210812;23;20629;-78
2021/10/30 11:03:54;;;;;;;19.20;12.10;;;19.90;67.70;;;;;;6259660;23;20130;-78
2021/10/30 11:06:31;;;;;;;16.77;12.07;;;19.90;67.60;;;;;;6259076;23;20191;-78
2021/10/30 11:09:14;;;;;;;18.27;12.63;;;19.90;67.60;;;;;;6232720;23;20141;-80
2021/10/30 11:11:39;;;;;;;17.60;12.13;;;19.90;67.70;;;;;;6233227;23;20165;-79
2021/10/30 11:14:06;;;;;;;21.70;13.88;;;19.90;67.30;;;;;;6233068;23;20584;-78
2021/10/30 11:16:39;;;;;;;19.38;12.77;;;19.90;66.90;;;;;;6234004;23;20136;-78
2021/10/30 11:19:16;;;;;;;16.35;11.75;;;19.90;66.80;;;;;;6209782;23;20126;-77
2021/10/30 11:21:45;;;;;;;20.13;13.40;;;19.80;67.00;;;;;;6212270;23;20165;-77
2021/10/30 11:24:18;;;;;;;15.70;11.98;;;19.90;66.70;;;;;;6234073;23;20208;-77
2021/10/30 11:26:44;;;;;;;18.38;13.27;;;19.90;67.00;;;;;;6234268;23;20137;-78
2021/10/30 11:29:12;;;;;;;18.58;13.30;;;19.80;67.50;;;;;;6233923;23;20180;-78
2021/10/30 11:31:39;;;;;;;18.02;12.70;;;19.80;65.80;;;;;;6232809;23;20138;-78
2021/10/30 11:34:10;;;;;;;21.17;13.82;;;19.80;66.90;;;;;;6232948;23;20130;-79
2021/10/30 11:36:37;;;;;;;18.73;13.55;;;19.90;66.70;;;;;;6207276;23;20203;-79
2021/10/30 11:39:04;;;;;;;18.35;12.98;;;19.90;66.50;;;;;;6259562;23;20130;-78
2021/10/30 11:41:35;;;;;;;18.30;13.30;;;19.80;67.40;;;;;;6233117;23;20174;-78
2021/10/30 11:44:09;;;;;;;21.58;14.85;;;19.80;66.90;;;;;;6234359;23;20149;-78
2021/10/30 11:46:43;;;;;;;18.30;12.07;;;19.80;66.30;;;;;;6260260;23;20555;-78
2021/10/30 11:49:13;;;;;;;19.38;14.07;;;19.80;67.40;;;;;;6233643;23;20134;-77
2021/10/30 11:51:41;;;;;;;18.90;13.65;;;19.80;67.40;;;;;;6233852;23;20133;-78
2021/10/30 11:54:08;;;;;;;20.48;13.55;;;19.90;67.20;;;;;;6232458;23;20558;-78
2021/10/30 11:56:37;;;;;;;20.88;13.85;;;19.80;66.70;;;;;;6258815;23;20208;-79
2021/10/30 11:59:06;;;;;;;19.08;13.25;;;19.80;67.00;;;;;;6258197;23;20149;-79
2021/10/30 12:01:38;;;;;;;20.80;15.38;;;19.80;67.20;;;;;;6257333;23;20169;-77
2021/10/30 12:04:13;;;;;;;19.98;14.02;;;19.80;65.80;;;;;;6256918;23;20126;-79
2021/10/30 12:06:47;;;;;;;19.70;13.95;;;19.80;66.70;;;;;;6207911;23;20188;-78
2021/10/30 12:09:18;;;;;;;22.52;15.77;;;19.80;66.20;;;;;;6233591;23;20137;-78
2021/10/30 12:11:45;;;;;;;20.95;14.77;;;19.80;65.40;;;;;;6255237;23;20156;-80
2021/10/30 12:14:11;;;;;;;21.70;15.10;;;19.90;65.90;;;;;;6253179;23;20213;-79
2021/10/30 12:16:37;;;;;;;19.90;13.82;;;19.80;65.80;;;;;;6254753;23;20187;-80
2021/10/30 12:19:05;;;;;;;20.02;14.70;;;19.90;65.90;;;;;;6226598;23;20158;-80
2021/10/30 12:21:34;;;;;;;21.00;14.40;;;19.80;66.40;;;;;;6228841;23;20169;-80
2021/10/30 12:24:02;;;;;;;19.77;14.32;;;19.80;65.60;;;;;;6253563;23;20134;-80
2021/10/30 12:26:29;;;;;;;19.58;13.15;;;19.80;65.20;;;;;;6252818;23;20212;-79
2021/10/30 12:29:14;;;;;;;21.75;15.02;;;19.80;66.80;;;;;;6202074;23;20180;-82
2021/10/30 12:31:54;;;;;;;19.05;14.05;;;19.80;65.70;;;;;;6232866;23;20191;-79
2021/10/30 12:34:24;;;;;;;18.40;13.48;;;19.80;66.60;;;;;;6254773;23;20129;-80
2021/10/30 12:36:53;;;;;;;22.05;14.93;;;19.80;66.60;;;;;;6203230;23;20130;-78
2021/10/30 12:39:20;;;;;;;22.13;15.35;;;19.80;65.60;;;;;;6229313;23;20129;-80
2021/10/30 12:41:51;;;;;;;20.55;15.32;;;19.80;65.70;;;;;;6230642;23;20165;-79